Time;durP1;ratioP1;P1;durP2;ratioP2;P2;SDS_P1;SDS_P2;PMS_P1;PMS_P2;Temp;Humidity;BMP_temperature;BMP_pressure;BME280_temperature;BME280_humidity;BME280_pressure;Samples;Min_cycle;Max_cycle;Signal;HPM_P1;HPM_P2
2022/07/23 00:02:01;;;;;;;;;;;;;;;26.23;56.91;101398.63;4981429;28;20299;-87
2022/07/23 00:04:27;;;;;;;;;;;;;;;26.20;57.11;101396.81;4996586;28;19924;-87
2022/07/23 00:06:52;;;;;;;;;;;;;;;26.14;57.17;101402.16;4996025;28;19928;-88
2022/07/23 00:09:18;;;;;;;;;;;;;;;26.17;56.68;101396.81;4996483;28;20399;-87
2022/07/23 00:11:43;;;;;;;;;;;;;;;26.16;56.84;101392.34;5011677;28;19922;-87
2022/07/23 00:14:08;;;;;;;;;;;;;;;26.19;56.68;101400.41;4994618;28;19940;-87
2022/07/23 00:16:34;;;;;;;;;;;;;;;26.18;56.83;101393.25;4995676;28;20001;-87
2022/07/23 00:19:01;;;;;;;;;;;;;;;26.16;56.50;101393.25;4981079;28;19925;-87
2022/07/23 00:21:26;;;;;;;;;;;;;;;26.15;56.71;101393.25;4995525;28;19922;-90
2022/07/23 00:23:56;;;;;;;;;;;;;;;26.17;56.54;101397.72;4995789;28;19988;-89
2022/07/23 00:26:21;;;;;;;;;;;;;;;26.13;56.56;101392.38;5007824;28;19922;-89
2022/07/23 00:28:48;;;;;;;;;;;;;;;26.16;56.86;101395.94;5002547;28;19928;-90
2022/07/23 00:31:13;;;;;;;;;;;;;;;26.04;57.29;101387.91;4982355;28;19960;-89
2022/07/23 00:33:38;;;;;;;;;;;;;;;26.04;56.71;101395.94;5013016;28;19957;-88
2022/07/23 00:36:04;;;;;;;;;;;;;;;26.10;56.57;101387.91;4990366;28;19988;-88
2022/07/23 00:38:29;;;;;;;;;;;;;;;26.10;56.92;101392.34;4994452;28;19994;-88
2022/07/23 00:40:57;;;;;;;;;;;;;;;26.03;56.62;101390.56;4996153;28;20200;-88
2022/07/23 00:43:23;;;;;;;;;;;;;;;26.07;56.77;101393.25;4982666;28;19968;-88
2022/07/23 00:45:49;;;;;;;;;;;;;;;26.06;56.59;101382.56;4998386;28;20036;-89
2022/07/23 00:48:15;;;;;;;;;;;;;;;26.07;56.45;101385.22;4996850;28;20386;-89
2022/07/23 00:50:41;;;;;;;;;;;;;;;26.08;56.45;101383.44;5009531;28;19925;-89
2022/07/23 00:53:08;;;;;;;;;;;;;;;26.07;56.71;101382.53;4981441;28;20480;-88
2022/07/23 00:55:33;;;;;;;;;;;;;;;26.09;56.51;101375.41;5000683;28;20409;-88
2022/07/23 00:57:59;;;;;;;;;;;;;;;26.08;56.35;101376.31;4977240;28;19922;-87
2022/07/23 01:00:24;;;;;;;;;;;;;;;26.09;56.31;101380.75;4996245;28;19918;-88
2022/07/23 01:02:50;;;;;;;;;;;;;;;26.09;56.42;101377.19;4986624;28;19932;-87
2022/07/23 01:05:15;;;;;;;;;;;;;;;26.07;56.33;101381.66;4995355;28;19918;-87
2022/07/23 01:07:41;;;;;;;;;;;;;;;26.07;56.30;101389.69;5006966;28;19921;-87
2022/07/23 01:10:30;;;;;;;;;;;;;;;26.07;56.52;101379.88;4996958;28;19925;-87
2022/07/23 01:12:52;;;;;;;;;;;;;;;26.06;56.21;101388.81;5011408;28;19921;-88
2022/07/23 01:15:17;;;;;;;;;;;;;;;26.06;56.20;101387.91;5011578;28;19928;-88
2022/07/23 01:17:43;;;;;;;;;;;;;;;26.04;56.29;101387.03;4992129;28;19964;-87
2022/07/23 01:20:08;;;;;;;;;;;;;;;25.99;56.14;101389.66;5000872;28;20347;-87
2022/07/23 01:22:33;;;;;;;;;;;;;;;25.94;56.06;101389.69;5010296;28;20505;-87
2022/07/23 01:24:59;;;;;;;;;;;;;;;25.98;56.06;101383.44;4995032;28;20441;-87
2022/07/23 01:27:24;;;;;;;;;;;;;;;26.00;56.04;101376.28;4995268;28;19925;-86
2022/07/23 01:29:50;;;;;;;;;;;;;;;25.99;56.01;101385.22;5011960;28;19932;-86
2022/07/23 01:32:15;;;;;;;;;;;;;;;26.00;56.00;101384.31;4993701;28;19922;-87
2022/07/23 01:34:41;;;;;;;;;;;;;;;25.99;55.88;101377.22;4996348;28;19917;-87
2022/07/23 01:37:06;;;;;;;;;;;;;;;26.03;55.67;101379.88;4997315;28;19928;-87
2022/07/23 01:39:31;;;;;;;;;;;;;;;26.00;56.12;101376.28;5009822;28;19983;-86
2022/07/23 01:41:57;;;;;;;;;;;;;;;25.99;55.75;101384.31;5006442;28;19921;-86
2022/07/23 01:44:22;;;;;;;;;;;;;;;25.97;55.70;101380.75;4979041;28;20338;-86
2022/07/23 01:46:48;;;;;;;;;;;;;;;25.97;55.79;101370.97;5013646;28;20004;-88
2022/07/23 01:49:13;;;;;;;;;;;;;;;25.97;55.56;101372.72;4995667;28;19918;-89
2022/07/23 01:51:59;;;;;;;;;;;;;;;25.98;55.56;101370.06;4997049;28;19921;-87
2022/07/23 01:54:24;;;;;;;;;;;;;;;25.95;55.50;101364.72;5019403;28;19927;-87
2022/07/23 01:56:50;;;;;;;;;;;;;;;25.94;55.86;101368.25;5006480;28;19925;-87
2022/07/23 01:59:15;;;;;;;;;;;;;;;25.95;55.39;101374.50;5002874;28;19921;-87
2022/07/23 02:01:40;;;;;;;;;;;;;;;25.95;55.66;101374.50;4996183;28;20320;-87
2022/07/23 02:04:06;;;;;;;;;;;;;;;25.93;55.50;101373.59;5006659;28;20366;-87
2022/07/23 02:06:31;;;;;;;;;;;;;;;25.91;55.75;101370.97;5011063;28;20317;-87
2022/07/23 02:08:57;;;;;;;;;;;;;;;25.91;55.43;101372.75;4994745;28;20372;-88
2022/07/23 02:11:22;;;;;;;;;;;;;;;25.89;55.79;101371.84;5004939;28;20397;-86
2022/07/23 02:13:48;;;;;;;;;;;;;;;25.89;55.75;101375.41;4993416;28;20511;-87
2022/07/23 02:16:13;;;;;;;;;;;;;;;25.91;55.47;101378.09;5017339;28;20426;-87
2022/07/23 02:18:38;;;;;;;;;;;;;;;25.90;55.61;101370.94;5008602;28;20284;-87
2022/07/23 02:21:04;;;;;;;;;;;;;;;25.89;55.52;101378.09;5009822;28;20389;-87
2022/07/23 02:23:29;;;;;;;;;;;;;;;25.89;55.45;101382.56;4993889;28;20306;-87
2022/07/23 02:25:55;;;;;;;;;;;;;;;25.92;55.79;101379.88;5011641;28;19974;-87
2022/07/23 02:28:20;;;;;;;;;;;;;;;25.91;55.80;101378.09;4998889;28;20298;-87
2022/07/23 02:30:45;;;;;;;;;;;;;;;25.92;55.35;101378.06;5026712;28;20306;-87
2022/07/23 02:33:11;;;;;;;;;;;;;;;25.89;55.52;101375.41;5024835;28;19953;-87
2022/07/23 02:35:36;;;;;;;;;;;;;;;25.89;55.44;101385.22;4993964;28;20446;-87
2022/07/23 02:38:02;;;;;;;;;;;;;;;25.86;55.70;101386.06;4984855;28;20326;-87
2022/07/23 02:40:27;;;;;;;;;;;;;;;25.86;55.38;101379.81;4994679;28;19918;-88
2022/07/23 02:42:54;;;;;;;;;;;;;;;25.83;55.38;101380.72;5010903;28;20310;-88
2022/07/23 02:45:19;;;;;;;;;;;;;;;25.87;55.41;101384.31;4984372;28;19956;-88
2022/07/23 02:47:45;;;;;;;;;;;;;;;25.85;55.21;101368.25;4977465;28;19964;-87
2022/07/23 02:50:12;;;;;;;;;;;;;;;25.84;55.60;101371.78;4993144;28;19921;-88
2022/07/23 02:52:37;;;;;;;;;;;;;;;25.82;55.75;101381.59;5002213;28;19918;-88
2022/07/23 02:55:03;;;;;;;;;;;;;;;25.83;55.38;101387.88;4984492;28;19922;-87
2022/07/23 02:57:28;;;;;;;;;;;;;;;25.82;55.36;101386.94;5034130;28;20013;-88
2022/07/23 02:59:54;;;;;;;;;;;;;;;25.82;55.48;101372.69;4977793;28;20016;-88
2022/07/23 03:02:19;;;;;;;;;;;;;;;25.84;55.51;101377.13;4997292;28;19944;-88
2022/07/23 03:04:44;;;;;;;;;;;;;;;25.82;55.04;101386.94;4977925;28;19929;-88
2022/07/23 03:07:10;;;;;;;;;;;;;;;25.78;55.58;101379.81;4993202;28;19918;-88
2022/07/23 03:09:35;;;;;;;;;;;;;;;25.77;55.32;101384.28;5025665;28;20011;-87
2022/07/23 03:12:01;;;;;;;;;;;;;;;25.77;55.45;101388.75;4991581;28;19917;-87
2022/07/23 03:14:27;;;;;;;;;;;;;;;25.78;55.51;101393.19;4979106;28;19944;-87
2022/07/23 03:16:54;;;;;;;;;;;;;;;25.79;55.03;101400.34;5007011;28;19926;-88
2022/07/23 03:19:19;;;;;;;;;;;;;;;25.78;55.41;101399.47;4981714;28;20398;-86
2022/07/23 03:21:45;;;;;;;;;;;;;;;25.77;55.49;101404.78;4996882;28;19956;-87
2022/07/23 03:24:10;;;;;;;;;;;;;;;25.76;55.35;101408.34;4998837;28;19929;-87
2022/07/23 03:26:36;;;;;;;;;;;;;;;25.74;55.07;101408.38;5002054;28;20291;-87
2022/07/23 03:29:03;;;;;;;;;;;;;;;25.74;55.28;101399.44;4997895;28;20318;-88
2022/07/23 03:31:29;;;;;;;;;;;;;;;25.76;55.03;101409.25;4996656;28;20394;-87
2022/07/23 03:33:55;;;;;;;;;;;;;;;25.74;55.19;101407.47;4986586;28;20043;-88
2022/07/23 03:36:20;;;;;;;;;;;;;;;25.74;55.22;101402.13;4997267;28;20004;-88
2022/07/23 03:38:46;;;;;;;;;;;;;;;25.72;55.13;101399.44;4998795;28;19961;-84
2022/07/23 03:41:11;;;;;;;;;;;;;;;25.72;55.50;101406.59;5004103;28;19975;-83
2022/07/23 03:43:37;;;;;;;;;;;;;;;25.74;55.16;101402.13;5032596;28;19921;-86
2022/07/23 03:46:02;;;;;;;;;;;;;;;25.74;55.04;101399.44;5022738;28;20330;-88
2022/07/23 03:48:27;;;;;;;;;;;;;;;25.72;55.26;101404.78;4997995;28;19917;-87
2022/07/23 03:50:53;;;;;;;;;;;;;;;25.69;55.28;101396.75;4995956;28;19921;-87
2022/07/23 03:53:18;;;;;;;;;;;;;;;25.71;55.33;101404.78;4986137;28;20287;-86
2022/07/23 03:55:44;;;;;;;;;;;;;;;25.69;55.45;101396.75;5024628;28;20024;-87
2022/07/23 03:58:09;;;;;;;;;;;;;;;25.70;55.21;101403.00;5023149;28;19968;-86
2022/07/23 04:00:36;;;;;;;;;;;;;;;25.68;55.24;101402.13;5006443;28;19952;-87
2022/07/23 04:03:01;;;;;;;;;;;;;;;25.68;55.26;101400.31;4997989;28;19992;-88
2022/07/23 04:08:30;;;;;;;;;;;;;;;25.73;55.25;101405.69;5011201;28;19929;-88
2022/07/23 04:11:04;;;;;;;;;;;;;;;25.70;55.25;101411.03;5008210;28;19921;-87
2022/07/23 04:13:32;;;;;;;;;;;;;;;25.64;55.38;101405.69;5013730;28;19918;-87
2022/07/23 04:15:57;;;;;;;;;;;;;;;25.62;55.07;101411.00;4996200;28;19926;-87
2022/07/23 04:18:23;;;;;;;;;;;;;;;25.67;55.42;101409.22;5007209;28;19920;-87
2022/07/23 04:20:49;;;;;;;;;;;;;;;25.63;55.27;101410.09;4994754;28;19953;-86
2022/07/23 04:23:14;;;;;;;;;;;;;;;25.62;55.32;101402.09;4993172;28;19945;-87
2022/07/23 04:25:40;;;;;;;;;;;;;;;25.58;55.01;101401.19;4986381;28;19956;-87
2022/07/23 04:28:05;;;;;;;;;;;;;;;25.61;55.07;101409.22;4994972;28;20311;-88
2022/07/23 04:30:30;;;;;;;;;;;;;;;25.62;55.10;101408.34;5012880;28;19918;-88
2022/07/23 04:32:56;;;;;;;;;;;;;;;25.65;55.19;101410.13;4998336;28;19979;-87
2022/07/23 04:35:21;;;;;;;;;;;;;;;25.64;55.23;101413.69;5009842;28;20409;-87
2022/07/23 04:37:47;;;;;;;;;;;;;;;25.64;55.41;101419.94;5011236;28;20367;-81
2022/07/23 04:40:12;;;;;;;;;;;;;;;25.60;55.33;101415.47;5005175;28;19925;-84
2022/07/23 04:42:38;;;;;;;;;;;;;;;25.57;55.46;101413.69;4998700;28;20414;-81
2022/07/23 04:45:03;;;;;;;;;;;;;;;25.58;55.38;101412.78;5002209;28;19922;-83
2022/07/23 04:47:30;;;;;;;;;;;;;;;25.59;55.47;101411.03;5022053;28;19941;-84
2022/07/23 04:49:56;;;;;;;;;;;;;;;25.58;55.12;101418.13;4992895;28;20468;-83
2022/07/23 04:52:21;;;;;;;;;;;;;;;25.56;55.49;101422.56;4995773;28;20008;-83
2022/07/23 04:54:47;;;;;;;;;;;;;;;25.56;55.34;101414.56;5029089;28;20401;-82
2022/07/23 04:57:12;;;;;;;;;;;;;;;25.59;55.60;101419.03;5008708;28;19950;-82
2022/07/23 04:59:37;;;;;;;;;;;;;;;25.60;55.47;101415.47;5013850;28;20384;-83
2022/07/23 05:02:03;;;;;;;;;;;;;;;25.57;55.47;101419.03;4996513;28;19921;-84
2022/07/23 05:04:28;;;;;;;;;;;;;;;25.58;55.86;101419.91;5012344;28;19944;-84
2022/07/23 05:06:54;;;;;;;;;;;;;;;25.61;55.71;101414.56;5016366;28;19929;-84
2022/07/23 05:09:19;;;;;;;;;;;;;;;25.57;55.74;101412.81;5006266;28;19980;-84
2022/07/23 05:11:45;;;;;;;;;;;;;;;25.58;55.86;101415.44;5015542;28;19921;-82
2022/07/23 05:14:12;;;;;;;;;;;;;;;25.59;55.71;101414.59;5016969;28;19921;-84
2022/07/23 05:16:38;;;;;;;;;;;;;;;25.60;55.90;101413.66;4994291;28;19925;-84
2022/07/23 05:19:03;;;;;;;;;;;;;;;25.63;56.01;101411.91;5004385;28;20313;-84
2022/07/23 05:21:28;;;;;;;;;;;;;;;25.63;55.87;101412.78;5005094;28;19929;-86
2022/07/23 05:23:54;;;;;;;;;;;;;;;25.60;55.99;101408.31;5012133;28;20374;-85
2022/07/23 05:26:19;;;;;;;;;;;;;;;25.63;55.93;101409.22;5002051;28;19922;-83
2022/07/23 05:28:44;;;;;;;;;;;;;;;25.61;56.24;101409.22;5001983;28;19922;-85
2022/07/23 05:31:10;;;;;;;;;;;;;;;25.61;56.27;101409.22;5017634;28;19922;-86
2022/07/23 05:33:35;;;;;;;;;;;;;;;25.55;56.06;101407.44;5025722;28;19951;-84
2022/07/23 05:36:02;;;;;;;;;;;;;;;25.56;56.19;101409.22;5013129;28;19921;-86
2022/07/23 05:38:28;;;;;;;;;;;;;;;25.56;56.19;101403.84;4985839;28;19922;-85
2022/07/23 05:40:53;;;;;;;;;;;;;;;25.53;56.27;101405.66;5015293;28;19932;-85
2022/07/23 05:43:19;;;;;;;;;;;;;;;25.54;56.32;101402.97;5004725;28;19961;-84
2022/07/23 05:45:50;;;;;;;;;;;;;;;25.53;56.39;101403.88;4999320;28;19929;-84
2022/07/23 05:48:15;;;;;;;;;;;;;;;25.57;55.88;101403.00;5013858;28;19921;-84
2022/07/23 05:50:42;;;;;;;;;;;;;;;25.54;56.29;101404.75;5017908;28;19920;-85
2022/07/23 05:53:07;;;;;;;;;;;;;;;25.57;56.13;101403.00;5005596;28;19921;-86
2022/07/23 05:55:36;;;;;;;;;;;;;;;25.62;56.07;101407.44;5014643;28;19932;-85
2022/07/23 05:58:01;;;;;;;;;;;;;;;25.60;55.88;101405.66;5019267;28;19924;-84
2022/07/23 06:00:27;;;;;;;;;;;;;;;25.60;56.20;101412.78;5010643;28;19921;-86
2022/07/23 06:02:52;;;;;;;;;;;;;;;25.60;56.43;101405.66;5002746;28;19917;-85
2022/07/23 06:05:18;;;;;;;;;;;;;;;25.62;56.58;101411.00;5015355;28;19947;-85
2022/07/23 06:07:43;;;;;;;;;;;;;;;25.67;54.90;101411.00;5017064;28;19921;-87
2022/07/23 06:10:09;;;;;;;;;;;;;;;25.77;54.60;101415.50;4999182;28;19925;-85
2022/07/23 06:12:35;;;;;;;;;;;;;;;25.67;55.56;101409.22;5004625;28;19928;-86
2022/07/23 06:15:01;;;;;;;;;;;;;;;25.71;56.30;101408.34;4998512;28;19921;-88
2022/07/23 06:17:30;;;;;;;;;;;;;;;25.64;56.44;101409.22;5016363;28;19921;-87
2022/07/23 06:19:55;;;;;;;;;;;;;;;25.60;56.77;101402.09;5016245;28;19926;-87
2022/07/23 06:22:21;;;;;;;;;;;;;;;25.62;56.95;101402.09;5010607;28;19922;-86
2022/07/23 06:24:47;;;;;;;;;;;;;;;25.56;57.11;101401.19;4975544;28;19922;-86
2022/07/23 06:27:12;;;;;;;;;;;;;;;25.59;57.14;101401.22;5021893;28;19926;-86
2022/07/23 06:29:38;;;;;;;;;;;;;;;25.61;56.95;101406.53;5009934;28;19922;-86
2022/07/23 06:32:04;;;;;;;;;;;;;;;25.62;56.95;101403.00;4981219;28;19928;-88
2022/07/23 06:34:29;;;;;;;;;;;;;;;25.58;57.08;101398.53;5028972;28;19921;-86
2022/07/23 06:36:57;;;;;;;;;;;;;;;25.58;57.29;101395.84;5003024;28;19945;-86
2022/07/23 06:39:22;;;;;;;;;;;;;;;25.57;57.07;101397.63;5020334;28;19917;-85
2022/07/23 06:41:47;;;;;;;;;;;;;;;25.58;57.04;101398.53;4993830;28;20280;-86
2022/07/23 06:44:13;;;;;;;;;;;;;;;25.56;57.39;101395.84;4992818;28;20314;-85
2022/07/23 06:46:38;;;;;;;;;;;;;;;25.57;57.29;101403.00;5009426;28;20306;-84
2022/07/23 06:49:04;;;;;;;;;;;;;;;25.64;57.43;101395.84;4981305;28;19957;-86
2022/07/23 06:51:30;;;;;;;;;;;;;;;25.51;57.68;101396.72;5021579;28;19929;-88
2022/07/23 06:53:59;;;;;;;;;;;;;;;25.61;57.47;101398.50;5025150;28;19917;-87
2022/07/23 06:56:24;;;;;;;;;;;;;;;25.66;57.08;101403.91;5027208;28;20390;-86
2022/07/23 06:58:50;;;;;;;;;;;;;;;25.68;57.11;101405.69;5009045;28;19928;-86
2022/07/23 07:01:19;;;;;;;;;;;;;;;25.65;56.98;101399.41;5013293;28;19949;-86
2022/07/23 07:03:45;;;;;;;;;;;;;;;25.70;56.86;101403.00;4996920;28;19918;-85
2022/07/23 07:06:13;;;;;;;;;;;;;;;25.70;56.99;101409.25;4998463;28;19925;-87
2022/07/23 07:08:51;;;;;;;;;;;;;;;25.72;56.74;101404.78;5012647;28;19921;-85
2022/07/23 07:11:17;;;;;;;;;;;;;;;25.74;56.81;101407.47;5008243;28;19917;-84
2022/07/23 07:13:44;;;;;;;;;;;;;;;25.75;57.18;101415.50;5018762;28;20267;-87
2022/07/23 07:16:10;;;;;;;;;;;;;;;25.73;57.18;101408.34;5018795;28;19918;-86
2022/07/23 07:18:54;;;;;;;;;;;;;;;25.73;57.43;101411.91;5029494;28;19940;-85
2022/07/23 07:21:19;;;;;;;;;;;;;;;25.72;57.22;101414.63;4999290;28;20413;-86
2022/07/23 07:23:44;;;;;;;;;;;;;;;25.73;57.08;101409.25;5009261;28;19922;-87
2022/07/23 07:26:22;;;;;;;;;;;;;;;25.77;57.19;101411.03;5013248;28;20042;-86
2022/07/23 07:28:48;;;;;;;;;;;;;;;25.76;57.31;101419.03;4983355;28;19925;-85
2022/07/23 07:31:16;;;;;;;;;;;;;;;25.83;57.12;101419.97;5000874;28;19922;-84
2022/07/23 07:33:42;;;;;;;;;;;;;;;25.74;57.47;101418.19;4983102;28;20008;-87
2022/07/23 07:36:26;;;;;;;;;;;;;;;25.82;57.04;101419.06;4998382;28;19952;-87
2022/07/23 07:38:57;;;;;;;;;;;;;;;25.79;57.42;101424.41;4980159;28;19922;-86
2022/07/23 07:41:23;;;;;;;;;;;;;;;25.80;57.37;101419.09;5017066;28;19937;-87
2022/07/23 07:43:50;;;;;;;;;;;;;;;25.75;57.38;101423.50;4992825;28;19917;-86
2022/07/23 07:46:23;;;;;;;;;;;;;;;25.80;57.32;101416.41;4986332;28;19971;-85
2022/07/23 07:48:55;;;;;;;;;;;;;;;25.75;57.83;101423.50;4987599;28;19918;-86
2022/07/23 07:51:28;;;;;;;;;;;;;;;25.72;57.90;101426.19;4991912;28;19921;-86
2022/07/23 07:53:55;;;;;;;;;;;;;;;25.79;58.14;101427.09;5018098;28;19921;-87
2022/07/23 07:56:20;;;;;;;;;;;;;;;25.84;58.01;101425.31;5003696;28;20387;-86
2022/07/23 07:58:46;;;;;;;;;;;;;;;25.85;57.55;101424.44;5021256;28;19920;-86
2022/07/23 08:01:15;;;;;;;;;;;;;;;25.88;57.84;101421.75;5029509;28;20302;-85
2022/07/23 08:03:40;;;;;;;;;;;;;;;25.84;57.54;101419.94;4997625;28;20460;-86
2022/07/23 08:06:06;;;;;;;;;;;;;;;25.87;57.62;101422.66;5022050;28;19949;-85
2022/07/23 08:08:31;;;;;;;;;;;;;;;25.88;57.59;101420.88;4996055;28;19917;-86
2022/07/23 08:11:03;;;;;;;;;;;;;;;25.85;57.47;101428.91;4995602;28;19918;-86
2022/07/23 08:13:31;;;;;;;;;;;;;;;25.88;57.79;101429.78;5026697;28;20299;-87
2022/07/23 08:15:56;;;;;;;;;;;;;;;25.90;57.54;101429.81;4996523;28;19917;-87
2022/07/23 08:18:25;;;;;;;;;;;;;;;25.85;57.76;101423.56;5019217;28;19924;-85
2022/07/23 08:20:51;;;;;;;;;;;;;;;25.84;57.47;101419.94;4981128;28;20535;-86
2022/07/23 08:23:22;;;;;;;;;;;;;;;25.85;57.78;101424.44;4997601;28;19921;-85
2022/07/23 08:25:52;;;;;;;;;;;;;;;25.86;57.54;101423.53;5015399;28;19917;-85
2022/07/23 08:28:17;;;;;;;;;;;;;;;25.86;57.67;101414.63;5014505;28;19917;-85
2022/07/23 08:30:44;;;;;;;;;;;;;;;25.85;57.37;101420.88;5002621;28;19917;-86
2022/07/23 08:33:12;;;;;;;;;;;;;;;25.87;57.52;101405.72;5000652;28;19925;-86
2022/07/23 08:35:39;;;;;;;;;;;;;;;25.86;57.73;101411.94;4999418;28;20402;-86
2022/07/23 08:38:05;;;;;;;;;;;;;;;25.83;57.57;101414.63;4982667;28;19917;-87
2022/07/23 08:40:31;;;;;;;;;;;;;;;25.81;57.65;101414.63;4989290;28;19957;-85
2022/07/23 08:42:57;;;;;;;;;;;;;;;25.81;57.70;101406.59;4997186;28;19961;-86
2022/07/23 08:45:24;;;;;;;;;;;;;;;25.81;57.54;101414.63;4982441;28;19968;-85
2022/07/23 08:47:58;;;;;;;;;;;;;;;25.81;57.48;101417.28;5001260;28;19925;-87
2022/07/23 08:50:24;;;;;;;;;;;;;;;25.83;57.56;101417.31;5004267;28;19983;-85
2022/07/23 08:52:50;;;;;;;;;;;;;;;25.82;57.40;101424.41;5021441;28;19917;-85
2022/07/23 08:55:16;;;;;;;;;;;;;;;25.83;57.57;101428.00;5001678;28;20343;-86
2022/07/23 08:57:56;;;;;;;;;;;;;;;25.83;57.49;101418.19;5013132;28;19913;-88
2022/07/23 09:00:34;;;;;;;;;;;;;;;25.83;57.60;101425.31;4998710;28;20390;-89
2022/07/23 09:02:59;;;;;;;;;;;;;;;25.83;57.48;101423.53;4998472;28;19917;-83
2022/07/23 09:05:25;;;;;;;;;;;;;;;25.85;57.23;101424.44;4981892;28;19975;-85
2022/07/23 09:08:07;;;;;;;;;;;;;;;25.81;57.05;101425.31;5020243;28;20407;-85
2022/07/23 09:10:48;;;;;;;;;;;;;;;25.84;56.76;101427.09;4996773;28;19920;-86
2022/07/23 09:13:32;;;;;;;;;;;;;;;25.85;56.90;101423.56;4994517;28;19921;-85
2022/07/23 09:15:59;;;;;;;;;;;;;;;25.85;56.71;101426.22;5005320;28;19917;-85
2022/07/23 09:18:37;;;;;;;;;;;;;;;25.83;57.20;101428.00;4999538;28;19963;-85
2022/07/23 09:21:28;;;;;;;;;;;;;;;25.85;56.59;101428.91;4988387;28;20371;-85
2022/07/23 09:24:00;;;;;;;;;;;;;;;25.79;57.14;101424.41;5004170;28;19921;-85
2022/07/23 09:26:42;;;;;;;;;;;;;;;25.83;56.72;101431.56;5012571;28;19925;-85
2022/07/23 09:29:18;;;;;;;;;;;;;;;25.84;56.59;101429.78;5012736;28;19976;-85
2022/07/23 09:31:46;;;;;;;;;;;;;;;25.84;56.75;101427.97;5000316;28;20381;-87
2022/07/23 09:34:13;;;;;;;;;;;;;;;25.84;56.55;101425.31;5013943;28;19947;-85
2022/07/23 09:36:39;;;;;;;;;;;;;;;25.83;56.66;101428.88;5005866;28;19944;-83
2022/07/23 09:39:05;;;;;;;;;;;;;;;25.85;56.76;101432.47;5008219;28;19918;-84
2022/07/23 09:47:46;;;;;;;;;;;;;;;25.87;56.36;101413.75;4952474;29;19921;-84
2022/07/23 09:50:15;;;;;;;;;;;;;;;25.86;56.44;101406.59;4967198;28;19976;-83
2022/07/23 09:52:56;;;;;;;;;;;;;;;25.85;56.67;101411.06;4994571;28;20490;-84
2022/07/23 09:55:36;;;;;;;;;;;;;;;25.87;56.54;101409.28;5010940;28;19983;-84
2022/07/23 09:58:02;;;;;;;;;;;;;;;25.87;56.36;101413.75;4994233;28;19949;-84
2022/07/23 10:00:27;;;;;;;;;;;;;;;25.88;56.43;101408.38;5007822;28;19979;-84
2022/07/23 10:02:52;;;;;;;;;;;;;;;25.91;56.32;101412.88;5010536;28;19922;-85
2022/07/23 10:05:18;;;;;;;;;;;;;;;25.87;56.51;101395.91;5011727;28;20019;-86
2022/07/23 10:07:43;;;;;;;;;;;;;;;25.90;56.28;101400.38;4985802;28;19999;-85
2022/07/23 10:10:15;;;;;;;;;;;;;;;25.88;56.53;101399.44;5015183;28;19928;-85
2022/07/23 10:15:09;;;;;;;;;;;;;;;25.89;56.31;101391.47;4994045;28;19971;-85
2022/07/23 10:17:35;;;;;;;;;;;;;;;25.93;56.47;101392.34;5006835;28;19961;-84
2022/07/23 10:20:01;;;;;;;;;;;;;;;25.91;56.67;101387.00;5011127;28;20342;-83
2022/07/23 10:22:32;;;;;;;;;;;;;;;25.93;56.60;101390.59;5010587;28;19921;-82
2022/07/23 10:25:12;;;;;;;;;;;;;;;25.94;56.64;101387.00;4993630;28;19948;-83
2022/07/23 10:27:47;;;;;;;;;;;;;;;25.93;56.42;101384.31;5010701;28;19941;-83
2022/07/23 10:30:13;;;;;;;;;;;;;;;25.95;56.32;101387.88;4994297;28;19984;-83
2022/07/23 10:32:57;;;;;;;;;;;;;;;25.94;56.42;101383.44;5011732;28;19943;-83
2022/07/23 10:35:23;;;;;;;;;;;;;;;25.97;56.19;101376.31;5012415;28;19914;-83
2022/07/23 10:37:49;;;;;;;;;;;;;;;25.97;56.17;101376.31;4994289;28;19913;-83
2022/07/23 10:40:19;;;;;;;;;;;;;;;25.96;56.56;101371.84;4993217;28;20394;-83
2022/07/23 10:42:47;;;;;;;;;;;;;;;25.96;56.80;101387.91;4996761;28;19925;-83
2022/07/23 10:45:23;;;;;;;;;;;;;;;25.99;56.54;101381.63;4990652;28;19922;-85
2022/07/23 10:47:50;;;;;;;;;;;;;;;25.96;56.49;101382.53;5008412;28;19928;-85
2022/07/23 10:50:19;;;;;;;;;;;;;;;26.00;56.61;101378.09;5015822;28;19913;-85
2022/07/23 10:53:04;;;;;;;;;;;;;;;25.97;56.53;101379.00;5010511;28;19917;-85
2022/07/23 10:55:29;;;;;;;;;;;;;;;25.98;56.51;101377.19;5006018;28;20391;-85
2022/07/23 10:57:55;;;;;;;;;;;;;;;25.99;56.49;101373.63;5002411;28;19925;-85
2022/07/23 11:00:21;;;;;;;;;;;;;;;25.99;56.56;101369.19;4976679;28;20386;-86
2022/07/23 11:02:47;;;;;;;;;;;;;;;25.99;56.20;101371.84;4977444;28;20289;-86
2022/07/23 11:05:14;;;;;;;;;;;;;;;26.03;56.23;101363.81;4975727;28;19936;-87
2022/07/23 11:07:58;;;;;;;;;;;;;;;26.03;56.47;101363.81;4991237;28;19921;-87
2022/07/23 11:10:34;;;;;;;;;;;;;;;26.02;56.21;101362.94;5023495;28;19929;-86
2022/07/23 11:13:19;;;;;;;;;;;;;;;26.03;56.14;101358.47;4970053;28;20004;-85
2022/07/23 11:16:10;;;;;;;;;;;;;;;26.05;55.89;101354.00;4997484;28;20375;-85
2022/07/23 11:18:46;;;;;;;;;;;;;;;26.02;55.95;101354.00;5002101;28;19968;-86
2022/07/23 11:21:21;;;;;;;;;;;;;;;26.04;55.75;101357.59;4996782;28;20002;-85
2022/07/23 11:24:08;;;;;;;;;;;;;;;26.05;55.99;101354.00;4989138;28;19914;-85
2022/07/23 11:26:36;;;;;;;;;;;;;;;26.03;55.74;101348.63;4979407;28;19922;-86
2022/07/23 11:29:21;;;;;;;;;;;;;;;26.04;56.13;101341.53;4988581;28;19920;-86
2022/07/23 11:31:59;;;;;;;;;;;;;;;26.03;56.04;101345.97;4989124;28;19918;-86
2022/07/23 11:34:29;;;;;;;;;;;;;;;26.08;55.63;101343.31;4975962;28;20011;-85
2022/07/23 11:36:55;;;;;;;;;;;;;;;26.03;56.01;101345.97;5005010;28;19918;-85
2022/07/23 11:39:20;;;;;;;;;;;;;;;26.06;55.46;101340.63;4998848;28;19917;-86
2022/07/23 11:41:46;;;;;;;;;;;;;;;25.96;55.44;101321.00;4975287;28;19924;-86
2022/07/23 11:44:27;;;;;;;;;;;;;;;26.10;55.26;101349.50;4984646;28;20013;-84
2022/07/23 11:46:59;;;;;;;;;;;;;;;26.12;55.29;101347.72;5004605;28;19921;-86
2022/07/23 11:49:25;;;;;;;;;;;;;;;26.10;55.18;101349.50;4973579;28;20307;-85
2022/07/23 11:52:06;;;;;;;;;;;;;;;26.12;55.28;101353.09;4975640;28;19925;-85
2022/07/23 11:54:32;;;;;;;;;;;;;;;26.11;55.75;101349.53;4973853;28;19924;-85
2022/07/23 11:56:58;;;;;;;;;;;;;;;26.12;55.33;101356.69;4976595;28;19914;-86
2022/07/23 11:59:24;;;;;;;;;;;;;;;26.11;55.30;101360.22;5007398;28;20105;-84
2022/07/23 12:02:16;;;;;;;;;;;;;;;26.15;55.13;101358.47;4976002;28;19918;-85
2022/07/23 12:04:43;;;;;;;;;;;;;;;26.19;54.88;101361.13;4988020;28;19921;-85
2022/07/23 12:07:27;;;;;;;;;;;;;;;26.22;54.92;101346.84;4967996;28;19921;-85
2022/07/23 12:09:53;;;;;;;;;;;;;;;26.18;54.97;101350.41;5000894;28;19918;-84
2022/07/23 12:12:19;;;;;;;;;;;;;;;26.18;55.22;101356.69;4974485;28;19922;-86
2022/07/23 12:14:55;;;;;;;;;;;;;;;26.21;55.22;101345.06;5000563;28;20001;-85
2022/07/23 12:17:21;;;;;;;;;;;;;;;26.23;55.00;101351.31;4977483;28;19918;-85
2022/07/23 12:19:46;;;;;;;;;;;;;;;26.23;55.00;101353.09;5011076;28;20422;-84
2022/07/23 12:22:14;;;;;;;;;;;;;;;26.20;55.17;101362.00;4976524;28;19921;-84
2022/07/23 12:25:02;;;;;;;;;;;;;;;26.20;54.55;101364.69;4999176;28;19977;-87
2022/07/23 12:27:28;;;;;;;;;;;;;;;26.20;54.85;101362.00;5015620;28;20048;-85
2022/07/23 12:29:53;;;;;;;;;;;;;;;26.21;55.45;101363.81;5016746;28;20426;-85
2022/07/23 12:32:23;;;;;;;;;;;;;;;26.24;55.38;101362.91;5013675;28;19921;-85
2022/07/23 12:34:50;;;;;;;;;;;;;;;26.23;55.17;101363.81;4992141;28;19967;-84
2022/07/23 12:37:32;;;;;;;;;;;;;;;26.28;55.11;101362.88;5004995;28;19913;-85
2022/07/23 12:39:57;;;;;;;;;;;;;;;26.28;54.99;101357.53;5020205;28;19914;-86
2022/07/23 12:42:24;;;;;;;;;;;;;;;26.25;55.02;101357.56;5013118;28;20016;-86
2022/07/23 12:45:06;;;;;;;;;;;;;;;26.25;55.03;101357.56;4979441;28;19918;-85
2022/07/23 12:47:53;;;;;;;;;;;;;;;26.27;54.66;101361.13;5017438;28;20005;-86
2022/07/23 12:50:34;;;;;;;;;;;;;;;26.23;54.94;101356.66;5021421;28;19913;-85
2022/07/23 12:53:17;;;;;;;;;;;;;;;26.23;55.10;101367.38;5002180;28;19914;-86